createdAt,value
2022-09-10T00:00:39.786Z,88.75
2022-09-10T00:01:39.832Z,87.74
2022-09-10T00:02:39.822Z,88.25
2022-09-10T00:03:39.755Z,88.15
2022-09-10T00:04:39.809Z,88.04
2022-09-10T00:05:39.718Z,88.15
2022-09-10T00:06:40.719Z,88.15
2022-09-10T00:07:39.716Z,88.25
2022-09-10T00:08:39.791Z,88.25
2022-09-10T00:09:39.766Z,88.04
2022-09-10T00:10:39.687Z,88.04
2022-09-10T00:11:39.819Z,88.45
2022-09-10T00:12:39.781Z,87.54
2022-09-10T00:13:39.683Z,87.40
2022-09-10T00:14:40.587Z,88.15
2022-09-10T00:15:39.695Z,88.51
2022-09-10T00:16:39.641Z,87.81
2022-09-10T00:17:39.635Z,88.01
2022-09-10T00:18:39.790Z,87.50
2022-09-10T00:19:39.620Z,87.54
2022-09-10T00:20:39.686Z,87.84
2022-09-10T00:21:39.693Z,87.44
2022-09-10T00:22:39.598Z,87.74
2022-09-10T00:23:39.628Z,88.41
2022-09-10T00:24:39.748Z,87.34
2022-09-10T00:25:39.603Z,87.74
2022-09-10T00:26:39.905Z,88.45
2022-09-10T00:27:39.697Z,88.31
2022-09-10T00:28:39.751Z,87.30
2022-09-10T00:29:39.661Z,87.81
2022-09-10T00:30:39.558Z,88.41
2022-09-10T00:31:39.577Z,88.31
2022-09-10T00:32:39.521Z,87.81
2022-09-10T00:33:39.536Z,88.01
2022-09-10T00:34:39.514Z,87.40
2022-09-10T00:35:40.519Z,87.50
2022-09-10T00:36:39.487Z,87.60
2022-09-10T00:37:39.493Z,87.19
2022-09-10T00:38:39.666Z,86.99
2022-09-10T00:39:39.497Z,87.26
2022-09-10T00:40:39.486Z,87.60
2022-09-10T00:41:39.905Z,86.95
2022-09-10T00:42:39.902Z,87.46
2022-09-10T00:43:39.467Z,86.99
2022-09-10T00:44:39.443Z,88.06
2022-09-10T00:45:39.505Z,87.46
2022-09-10T00:46:39.422Z,87.46
2022-09-10T00:47:39.412Z,86.85
2022-09-10T00:48:39.549Z,87.36
2022-09-10T00:49:39.434Z,86.95
2022-09-10T00:50:39.464Z,86.95
2022-09-10T00:51:39.381Z,87.36
2022-09-10T00:52:40.046Z,87.66
2022-09-10T00:53:40.423Z,87.15
2022-09-10T00:54:39.375Z,87.56
2022-09-10T00:55:39.405Z,87.15
2022-09-10T00:56:39.335Z,86.95
2022-09-10T00:57:39.363Z,86.69
2022-09-10T00:58:39.488Z,86.65
2022-09-10T00:59:39.324Z,86.95
2022-09-10T01:00:39.369Z,87.30
2022-09-10T01:01:39.373Z,87.05
2022-09-10T01:02:39.281Z,87.26
2022-09-10T01:03:39.416Z,87.05
2022-09-10T01:04:39.298Z,86.95
2022-09-10T01:05:39.298Z,86.59
2022-09-10T01:06:39.244Z,87.19
2022-09-10T01:07:39.280Z,86.99
2022-09-10T01:08:39.356Z,87.40
2022-09-10T01:09:39.237Z,86.69
2022-09-10T01:10:39.287Z,87.10
2022-09-10T01:11:39.236Z,87.10
2022-09-10T01:12:39.414Z,87.60
2022-09-10T01:13:39.199Z,87.24
2022-09-10T01:14:39.185Z,87.70
2022-09-10T01:15:39.206Z,87.44
2022-09-10T01:16:39.171Z,88.15
2022-09-10T01:17:39.166Z,87.64
2022-09-10T01:18:39.916Z,88.04
2022-09-10T01:19:39.731Z,87.44
2022-09-10T01:20:39.191Z,87.44
2022-09-10T01:21:39.173Z,88.15
2022-09-10T01:22:39.151Z,87.44
2022-09-10T01:23:40.102Z,87.68
2022-09-10T01:24:39.131Z,88.15
2022-09-10T01:25:39.120Z,87.34
2022-09-10T01:26:39.143Z,88.04
2022-09-10T01:27:39.158Z,88.29
2022-09-10T01:28:39.196Z,87.99
2022-09-10T01:29:39.064Z,88.29
2022-09-10T01:30:39.091Z,88.39
2022-09-10T01:31:39.109Z,88.19
2022-09-10T01:32:39.111Z,88.29
2022-09-10T01:33:39.151Z,88.53
2022-09-10T01:34:39.024Z,89.40
2022-09-10T01:35:39.044Z,88.59
2022-09-10T01:36:39.050Z,88.19
2022-09-10T01:37:39.006Z,88.49
2022-09-10T01:38:39.098Z,89.40
2022-09-10T01:39:39.069Z,89.34
2022-09-10T01:40:39.175Z,89.30
2022-09-10T01:41:39.000Z,89.14
2022-09-10T01:42:39.042Z,89.24
2022-09-10T01:43:38.982Z,89.34
2022-09-10T01:44:39.014Z,88.94
2022-09-10T01:45:39.016Z,89.04
2022-09-10T01:46:38.941Z,89.14
2022-09-10T01:47:38.971Z,89.04
2022-09-10T01:48:39.063Z,89.24
2022-09-10T01:49:38.906Z,89.14
2022-09-10T01:50:38.956Z,90.05
2022-09-10T01:51:38.900Z,89.75
2022-09-10T01:52:38.894Z,89.24
2022-09-10T01:53:38.927Z,89.99
2022-09-10T01:54:38.874Z,89.99
2022-09-10T01:55:38.929Z,89.79
2022-09-10T01:56:38.855Z,90.09
2022-09-10T01:57:38.879Z,89.39
2022-09-10T01:58:38.972Z,89.48
2022-09-10T01:59:38.827Z,89.99
2022-09-10T02:00:38.904Z,89.89
2022-09-10T02:01:38.814Z,90.24
2022-09-10T02:02:38.802Z,90.14
2022-09-10T02:03:38.797Z,90.14
2022-09-10T02:04:38.787Z,90.09
2022-09-10T02:05:38.806Z,90.14
2022-09-10T02:06:38.774Z,90.40
2022-09-10T02:07:38.758Z,90.80
2022-09-10T02:08:39.888Z,91.51
2022-09-10T02:09:38.787Z,91.51
2022-09-10T02:10:39.614Z,90.70
2022-09-10T02:11:38.734Z,90.80
2022-09-10T02:12:38.790Z,90.70
2022-09-10T02:13:38.726Z,90.70
2022-09-10T02:14:38.726Z,90.80
2022-09-10T02:15:38.725Z,90.80
2022-09-10T02:16:38.769Z,90.60
2022-09-10T02:17:39.620Z,90.60
2022-09-10T02:18:38.735Z,90.60
2022-09-10T02:19:38.673Z,90.64
2022-09-10T02:20:38.689Z,90.60
2022-09-10T02:21:39.611Z,91.55
2022-09-10T02:22:38.671Z,91.11
2022-09-10T02:23:38.654Z,91.66
2022-09-10T02:24:38.632Z,91.35
2022-09-10T02:25:38.680Z,91.20
2022-09-10T02:26:38.683Z,91.31
2022-09-10T02:27:38.613Z,91.25
2022-09-10T02:28:38.689Z,91.41
2022-09-10T02:29:38.590Z,91.51
2022-09-10T02:30:38.586Z,91.41
2022-09-10T02:31:38.682Z,91.71
2022-09-10T02:32:38.576Z,91.41
2022-09-10T02:33:38.578Z,91.41
2022-09-10T02:34:38.554Z,91.71
2022-09-10T02:35:38.546Z,91.51
2022-09-10T02:36:38.569Z,91.20
2022-09-10T02:37:38.596Z,91.20
2022-09-10T02:38:38.626Z,91.31
2022-09-10T02:39:38.762Z,91.51
2022-09-10T02:40:38.507Z,91.11
2022-09-10T02:41:38.554Z,91.41
2022-09-10T02:42:38.491Z,91.51
2022-09-10T02:43:38.483Z,91.11
2022-09-10T02:44:38.471Z,91.31
2022-09-10T02:45:39.172Z,91.51
2022-09-10T02:46:38.463Z,91.31
2022-09-10T02:47:38.468Z,91.20
2022-09-10T02:48:38.530Z,91.20
2022-09-10T02:49:38.442Z,91.31
2022-09-10T02:50:38.430Z,91.11
2022-09-10T02:51:38.451Z,90.40
2022-09-10T02:52:38.413Z,90.70
2022-09-10T02:53:38.420Z,91.11
2022-09-10T02:54:38.395Z,91.31
2022-09-10T02:55:38.391Z,91.00
2022-09-10T02:56:38.404Z,90.80
2022-09-10T02:57:38.369Z,91.51
2022-09-10T02:58:38.473Z,91.11
2022-09-10T02:59:38.361Z,91.20
2022-09-10T03:00:38.348Z,91.51
2022-09-10T03:01:38.425Z,91.11
2022-09-10T03:02:38.332Z,91.25
2022-09-10T03:03:38.323Z,91.00
2022-09-10T03:04:38.327Z,91.25
2022-09-10T03:05:38.312Z,91.46
2022-09-10T03:06:38.384Z,91.05
2022-09-10T03:07:38.293Z,91.51
2022-09-10T03:08:38.286Z,91.15
2022-09-10T03:09:38.283Z,91.35
2022-09-10T03:10:38.267Z,91.25
2022-09-10T03:11:38.291Z,91.35
2022-09-10T03:12:38.292Z,91.25
2022-09-10T03:13:38.251Z,91.39
2022-09-10T03:14:38.241Z,91.35
2022-09-10T03:15:38.243Z,91.19
2022-09-10T03:16:38.311Z,91.80
2022-09-10T03:17:38.216Z,91.39
2022-09-10T03:18:38.358Z,91.30
2022-09-10T03:19:38.201Z,91.30
2022-09-10T03:20:38.199Z,91.90
2022-09-10T03:21:38.215Z,92.86
2022-09-10T03:22:38.175Z,92.35
2022-09-10T03:23:38.171Z,92.76
2022-09-10T03:24:38.157Z,92.14
2022-09-10T03:25:38.151Z,93.06
2022-09-10T03:26:38.163Z,93.46
2022-09-10T03:27:38.148Z,93.06
2022-09-10T03:28:38.150Z,93.26
2022-09-10T03:29:38.117Z,92.90
2022-09-10T03:30:38.114Z,93.00
2022-09-10T03:31:38.156Z,93.41
2022-09-10T03:32:38.097Z,93.71
2022-09-10T03:33:38.086Z,94.26
2022-09-10T03:34:38.066Z,94.37
2022-09-10T03:35:39.094Z,94.57
2022-09-10T03:36:38.053Z,94.17
2022-09-10T03:37:38.046Z,95.18
2022-09-10T03:38:38.041Z,94.87
2022-09-10T03:39:38.068Z,94.26
2022-09-10T03:40:38.074Z,94.57
2022-09-10T03:41:38.018Z,95.07
2022-09-10T03:42:38.012Z,94.87
2022-09-10T03:43:38.008Z,94.77
2022-09-10T03:44:37.993Z,94.57
2022-09-10T03:45:38.152Z,94.67
2022-09-10T03:46:37.976Z,94.87
2022-09-10T03:47:37.970Z,95.12
2022-09-10T03:48:38.097Z,95.07
2022-09-10T03:49:37.952Z,94.87
2022-09-10T03:50:37.968Z,94.77
2022-09-10T03:51:37.935Z,94.87
2022-09-10T03:52:37.932Z,94.87
2022-09-10T03:53:37.914Z,94.87
2022-09-10T03:54:37.912Z,95.02
2022-09-10T03:55:37.929Z,94.51
2022-09-10T03:56:37.892Z,94.82
2022-09-10T03:57:37.888Z,95.07
2022-09-10T03:58:37.884Z,95.32
2022-09-10T03:59:37.876Z,95.32
2022-09-10T04:00:37.894Z,95.32
2022-09-10T04:01:37.853Z,95.28
2022-09-10T04:02:37.858Z,95.28
2022-09-10T04:03:37.840Z,95.68
2022-09-10T04:04:37.828Z,95.38
2022-09-10T04:05:37.852Z,95.48
2022-09-10T04:06:37.818Z,95.02
2022-09-10T04:07:37.807Z,95.07
2022-09-10T04:08:37.803Z,94.92
2022-09-10T04:09:37.794Z,95.12
2022-09-10T04:10:37.823Z,94.98
2022-09-10T04:11:37.784Z,94.98
2022-09-10T04:12:37.782Z,95.38
2022-09-10T04:13:37.771Z,95.42
2022-09-10T04:14:37.758Z,95.48
2022-09-10T04:15:37.774Z,95.28
2022-09-10T04:16:37.797Z,95.48
2022-09-10T04:17:37.737Z,96.03
2022-09-10T04:18:37.726Z,95.89
2022-09-10T04:19:37.721Z,95.68
2022-09-10T04:20:37.739Z,96.75
2022-09-10T04:21:37.706Z,96.70
2022-09-10T04:22:37.723Z,96.70
2022-09-10T04:23:37.694Z,96.70
2022-09-10T04:24:37.679Z,96.64
2022-09-10T04:25:38.704Z,96.54
2022-09-10T04:26:37.669Z,96.39
2022-09-10T04:27:37.655Z,96.70
2022-09-10T04:28:37.645Z,96.39
2022-09-10T04:29:37.642Z,96.44
2022-09-10T04:30:37.632Z,96.50
2022-09-10T04:31:37.699Z,96.44
2022-09-10T04:32:37.613Z,96.64
2022-09-10T04:33:37.606Z,96.95
2022-09-10T04:34:37.601Z,96.95
2022-09-10T04:35:37.622Z,97.35
2022-09-10T04:36:37.585Z,97.86
2022-09-10T04:37:37.584Z,97.86
2022-09-10T04:38:37.657Z,97.76
2022-09-10T04:39:37.603Z,97.91
2022-09-10T04:40:37.587Z,97.25
2022-09-10T04:41:37.553Z,97.05
2022-09-10T04:42:37.556Z,98.01
2022-09-10T04:43:37.538Z,98.11
2022-09-10T04:44:37.528Z,98.11
2022-09-10T04:45:37.572Z,98.11
2022-09-10T04:46:37.524Z,97.80
2022-09-10T04:47:37.511Z,97.76
2022-09-10T04:48:37.524Z,98.11
2022-09-10T04:49:37.487Z,98.21
2022-09-10T04:50:37.508Z,98.41
2022-09-10T04:51:37.473Z,98.72
2022-09-10T04:52:37.473Z,98.62
2022-09-10T04:53:37.460Z,97.80
2022-09-10T04:54:37.475Z,98.62
2022-09-10T04:55:37.465Z,98.82
2022-09-10T04:56:37.433Z,98.57
2022-09-10T04:57:37.418Z,98.62
2022-09-10T04:58:39.350Z,98.52
2022-09-10T04:59:38.412Z,97.86
2022-09-10T05:00:37.438Z,98.16
2022-09-10T05:01:37.396Z,97.66
2022-09-10T05:02:37.386Z,98.07
2022-09-10T05:03:38.382Z,98.07
2022-09-10T05:04:37.396Z,97.56
2022-09-10T05:05:37.397Z,97.96
2022-09-10T05:06:37.357Z,97.86
2022-09-10T05:07:37.352Z,97.86
2022-09-10T05:08:37.406Z,97.92
2022-09-10T05:09:37.341Z,97.61
2022-09-10T05:10:37.329Z,97.51
2022-09-10T05:11:37.344Z,97.31
2022-09-10T05:12:37.312Z,97.20
2022-09-10T05:13:37.315Z,97.20
2022-09-10T05:14:37.299Z,97.67
2022-09-10T05:15:37.317Z,97.36
2022-09-10T05:16:37.370Z,97.02
2022-09-10T05:17:37.273Z,96.81
2022-09-10T05:18:37.320Z,96.22
2022-09-10T05:19:37.258Z,95.91
2022-09-10T05:20:37.270Z,94.40
2022-09-10T05:21:37.250Z,93.35
2022-09-10T05:22:40.512Z,92.05
2022-09-10T05:23:38.220Z,90.20
2022-09-10T05:24:37.253Z,87.85
2022-09-10T05:25:37.227Z,86.21
2022-09-10T05:26:37.202Z,84.85
2022-09-10T05:27:37.189Z,83.75
2022-09-10T05:28:37.236Z,83.65
2022-09-10T05:29:37.175Z,84.33
2022-09-10T05:30:37.193Z,84.67
2022-09-10T05:31:37.197Z,85.08
2022-09-10T05:32:37.153Z,85.48
2022-09-10T05:33:37.142Z,84.43
2022-09-10T05:34:37.138Z,83.48
2022-09-10T05:35:37.161Z,83.69
2022-09-10T05:36:37.117Z,84.53
2022-09-10T05:37:37.121Z,84.57
2022-09-10T05:38:39.984Z,85.11
2022-09-10T05:39:38.107Z,85.42
2022-09-10T05:40:37.156Z,86.67
2022-09-10T05:41:37.091Z,86.87
2022-09-10T05:42:37.078Z,87.41
2022-09-10T05:43:37.067Z,87.62
2022-09-10T05:44:37.057Z,87.66
2022-09-10T05:45:37.097Z,87.72
2022-09-10T05:46:37.044Z,88.17
2022-09-10T05:47:37.036Z,88.26
2022-09-10T05:48:41.386Z,88.67
2022-09-10T05:49:38.018Z,88.61
2022-09-10T05:50:37.032Z,88.77
2022-09-10T05:51:37.003Z,88.87
2022-09-10T05:52:36.997Z,88.97
2022-09-10T05:53:36.986Z,89.07
2022-09-10T05:54:36.977Z,89.28
2022-09-10T05:55:37.000Z,89.17
2022-09-10T05:56:36.959Z,88.97
2022-09-10T05:57:36.959Z,89.37
2022-09-10T05:58:36.964Z,89.07
2022-09-10T05:59:36.936Z,88.67
2022-09-10T06:00:36.960Z,88.67
2022-09-10T06:01:36.928Z,88.57
2022-09-10T06:02:37.081Z,88.77
2022-09-10T06:03:36.916Z,88.67
2022-09-10T06:04:36.906Z,89.58
2022-09-10T06:05:36.916Z,89.28
2022-09-10T06:06:36.881Z,88.26
2022-09-10T06:07:36.923Z,88.83
2022-09-10T06:08:37.011Z,88.23
2022-09-10T06:09:36.862Z,87.82
2022-09-10T06:10:36.876Z,88.02
2022-09-10T06:11:36.846Z,88.12
2022-09-10T06:12:36.838Z,87.92
2022-09-10T06:13:36.829Z,87.96
2022-09-10T06:14:36.818Z,87.86
2022-09-10T06:15:36.838Z,88.37
2022-09-10T06:16:36.854Z,87.92
2022-09-10T06:17:36.796Z,88.43
2022-09-10T06:18:36.827Z,88.17
2022-09-10T06:19:36.776Z,88.47
2022-09-10T06:20:36.794Z,87.92
2022-09-10T06:21:36.767Z,88.12
2022-09-10T06:22:36.758Z,88.43
2022-09-10T06:23:36.740Z,88.02
2022-09-10T06:24:36.737Z,87.72
2022-09-10T06:25:36.758Z,87.96
2022-09-10T06:26:36.723Z,88.12
2022-09-10T06:27:36.714Z,88.02
2022-09-10T06:28:36.824Z,88.23
2022-09-10T06:29:36.715Z,88.02
2022-09-10T06:30:36.755Z,88.02
2022-09-10T06:31:36.678Z,88.02
2022-09-10T06:32:36.677Z,87.92
2022-09-10T06:33:36.670Z,88.23
2022-09-10T06:34:36.663Z,88.23
2022-09-10T06:35:36.677Z,88.12
2022-09-10T06:36:36.644Z,88.18
2022-09-10T06:37:36.637Z,88.43
2022-09-10T06:38:36.631Z,87.88
2022-09-10T06:39:36.647Z,87.82
2022-09-10T06:40:36.652Z,87.92
2022-09-10T06:41:36.607Z,87.88
2022-09-10T06:42:36.608Z,88.12
2022-09-10T06:43:36.684Z,88.12
2022-09-10T06:44:36.588Z,87.82
2022-09-10T06:45:36.632Z,87.82
2022-09-10T06:47:25.794Z,88.02
2022-09-10T06:48:19.134Z,88.12
2022-09-10T06:48:49.604Z,88.18
2022-09-10T06:49:38.541Z,87.98
2022-09-10T06:50:36.558Z,87.78
2022-09-10T06:51:36.535Z,88.08
2022-09-10T06:52:36.522Z,87.18
2022-09-10T06:53:36.514Z,87.27
2022-09-10T06:54:36.508Z,87.48
2022-09-10T06:55:36.527Z,87.13
2022-09-10T06:56:36.488Z,87.13
2022-09-10T06:57:36.476Z,86.93
2022-09-10T06:58:36.506Z,86.83
2022-09-10T06:59:36.461Z,87.43
2022-09-10T07:00:36.479Z,87.23
2022-09-10T07:01:36.476Z,87.23
2022-09-10T07:02:36.437Z,86.18
2022-09-10T07:03:36.430Z,86.43
2022-09-10T07:04:36.419Z,86.69
2022-09-10T07:05:36.441Z,86.49
2022-09-10T07:06:36.414Z,86.38
2022-09-10T07:07:36.397Z,86.69
2022-09-10T07:08:36.443Z,85.88
2022-09-10T07:09:36.380Z,86.58
2022-09-10T07:10:36.394Z,86.58
2022-09-10T07:11:41.222Z,86.53
2022-09-10T07:12:38.351Z,85.68
2022-09-10T07:13:36.347Z,85.88
2022-09-10T07:14:36.338Z,85.38
2022-09-10T07:15:36.411Z,85.58
2022-09-10T07:16:36.319Z,85.48
2022-09-10T07:17:36.313Z,85.68
2022-09-10T07:18:36.363Z,85.38
2022-09-10T07:19:36.309Z,84.77
2022-09-10T07:20:36.317Z,85.88
2022-09-10T07:21:36.311Z,85.88
2022-09-10T07:22:36.273Z,85.28
2022-09-10T07:23:36.266Z,85.44
2022-09-10T07:24:36.258Z,85.94
2022-09-10T07:25:36.278Z,85.44
2022-09-10T07:26:36.256Z,85.54
2022-09-10T07:27:36.232Z,84.83
2022-09-10T07:28:36.333Z,85.24
2022-09-10T07:29:36.220Z,85.64
2022-09-10T07:30:36.250Z,84.53
2022-09-10T07:31:36.244Z,84.57
2022-09-10T07:32:36.193Z,84.33
2022-09-10T07:33:36.186Z,84.23
2022-09-10T07:34:36.179Z,84.74
2022-09-10T07:35:36.196Z,84.03
2022-09-10T07:36:36.166Z,83.83
2022-09-10T07:37:36.163Z,84.43
2022-09-10T07:38:36.167Z,83.72
2022-09-10T07:39:36.202Z,84.09
2022-09-10T07:40:36.162Z,83.59
2022-09-10T07:41:36.129Z,83.04
2022-09-10T07:42:36.121Z,82.94
2022-09-10T07:43:36.111Z,83.34
2022-09-10T07:44:36.100Z,82.54
2022-09-10T07:45:36.152Z,82.44
2022-09-10T07:46:36.090Z,81.73
2022-09-10T07:47:36.080Z,82.34
2022-09-10T07:48:36.199Z,82.34
2022-09-10T07:49:36.066Z,82.24
2022-09-10T07:50:36.083Z,82.10
2022-09-10T07:51:36.057Z,81.79
2022-09-10T07:52:36.039Z,81.49
2022-09-10T07:53:36.030Z,81.19
2022-09-10T07:54:36.029Z,81.46
2022-09-10T07:55:37.043Z,81.46
2022-09-10T07:56:36.028Z,81.49
2022-09-10T07:57:35.998Z,81.19
2022-09-10T07:58:36.211Z,81.79
2022-09-10T07:59:35.981Z,81.79
2022-09-10T08:00:36.008Z,81.49
2022-09-10T08:01:35.977Z,81.59
2022-09-10T08:02:36.010Z,81.93
2022-09-10T08:03:35.953Z,81.53
2022-09-10T08:04:37.144Z,82.14
2022-09-10T08:05:36.963Z,82.34
2022-09-10T08:06:35.929Z,81.93
2022-09-10T08:07:35.911Z,81.84
2022-09-10T08:08:36.913Z,82.74
2022-09-10T08:09:35.927Z,82.84
2022-09-10T08:10:35.926Z,82.54
2022-09-10T08:11:35.897Z,82.14
2022-09-10T08:12:35.922Z,81.63
2022-09-10T08:13:35.875Z,82.14
2022-09-10T08:14:35.856Z,82.34
2022-09-10T08:15:36.902Z,81.93
2022-09-10T08:16:35.851Z,82.04
2022-09-10T08:17:35.845Z,81.63
2022-09-10T08:18:35.876Z,82.14
2022-09-10T08:19:35.826Z,82.44
2022-09-10T08:20:35.841Z,82.14
2022-09-10T08:21:35.807Z,81.23
2022-09-10T08:22:35.800Z,81.49
2022-09-10T08:23:35.802Z,81.39
2022-09-10T08:24:35.786Z,80.69
2022-09-10T08:25:35.801Z,81.49
2022-09-10T08:26:35.765Z,81.49
2022-09-10T08:27:35.756Z,80.69
2022-09-10T08:28:35.802Z,79.88
2022-09-10T08:29:35.740Z,81.49
2022-09-10T08:30:35.768Z,80.99
2022-09-10T08:31:35.725Z,80.79
2022-09-10T08:32:35.722Z,80.69
2022-09-10T08:33:35.710Z,79.48
2022-09-10T08:34:35.700Z,80.08
2022-09-10T08:35:35.723Z,80.69
2022-09-10T08:36:35.685Z,81.65
2022-09-10T08:37:35.681Z,80.05
2022-09-10T08:38:35.719Z,79.68
2022-09-10T08:39:35.676Z,79.64
2022-09-10T08:40:35.656Z,79.94
2022-09-10T08:41:35.694Z,79.91
2022-09-10T08:42:35.642Z,79.30
2022-09-10T08:43:35.634Z,79.00
2022-09-10T08:44:35.622Z,78.46
2022-09-10T08:45:35.649Z,79.27
2022-09-10T08:46:35.636Z,78.27
2022-09-10T08:47:35.603Z,78.16
2022-09-10T08:48:35.678Z,78.46
2022-09-10T08:49:35.587Z,77.96
2022-09-10T08:50:35.580Z,77.96
2022-09-10T08:51:35.591Z,77.83
2022-09-10T08:52:35.562Z,77.72
2022-09-10T08:53:35.554Z,77.62
2022-09-10T08:54:35.549Z,77.59
2022-09-10T08:55:35.539Z,77.99
2022-09-10T08:56:35.568Z,77.48
2022-09-10T08:57:36.523Z,77.69
2022-09-10T08:58:35.517Z,77.69
2022-09-10T08:59:35.517Z,77.69
2022-09-10T09:00:35.493Z,76.89
2022-09-10T09:01:35.549Z,77.48
2022-09-10T09:02:48.892Z,76.68
2022-09-10T09:03:37.473Z,75.98
2022-09-10T09:04:35.473Z,76.82
2022-09-10T09:05:35.460Z,76.72
2022-09-10T09:06:35.471Z,77.12
2022-09-10T09:07:35.445Z,77.83
2022-09-10T09:08:35.438Z,77.72
2022-09-10T09:09:35.433Z,77.42
2022-09-10T09:10:35.447Z,77.42
2022-09-10T09:11:36.411Z,77.42
2022-09-10T09:12:35.409Z,77.62
2022-09-10T09:13:35.406Z,77.72
2022-09-10T09:14:35.398Z,77.42
2022-09-10T09:15:35.440Z,76.82
2022-09-10T09:16:35.379Z,76.98
2022-09-10T09:17:35.369Z,76.38
2022-09-10T09:18:35.364Z,76.68
2022-09-10T09:19:35.354Z,76.78
2022-09-10T09:20:35.370Z,76.48
2022-09-10T09:21:35.335Z,76.58
2022-09-10T09:22:39.796Z,76.65
2022-09-10T09:23:36.320Z,76.85
2022-09-10T09:24:35.318Z,75.81
2022-09-10T09:25:35.338Z,76.31
2022-09-10T09:26:35.298Z,75.60
2022-09-10T09:27:35.288Z,75.81
2022-09-10T09:28:35.281Z,76.51
2022-09-10T09:29:35.277Z,77.75
2022-09-10T09:30:35.297Z,78.75
2022-09-10T09:31:35.286Z,77.65
2022-09-10T09:32:35.247Z,77.65
2022-09-10T09:33:35.237Z,78.45
2022-09-10T09:34:35.229Z,78.35
2022-09-10T09:35:35.219Z,77.75
2022-09-10T09:36:35.236Z,78.15
2022-09-10T09:37:35.205Z,78.52
2022-09-10T09:38:35.300Z,77.78
2022-09-10T09:39:35.233Z,77.28
2022-09-10T09:40:35.187Z,76.74
2022-09-10T09:41:35.206Z,75.43
2022-09-10T09:42:35.170Z,74.90
2022-09-10T09:43:35.155Z,75.76
2022-09-10T09:44:35.151Z,73.06
2022-09-10T09:45:35.214Z,72.53
2022-09-10T09:46:35.165Z,73.22
2022-09-10T09:47:35.128Z,71.39
2022-09-10T09:48:35.122Z,72.39
2022-09-10T09:49:35.109Z,71.89
2022-09-10T09:50:35.107Z,71.26
2022-09-10T09:51:35.120Z,71.46
2022-09-10T09:52:35.090Z,70.42
2022-09-10T09:53:35.122Z,70.86
2022-09-10T09:55:03.254Z,70.86
2022-09-10T09:55:37.122Z,70.96
2022-09-10T09:56:35.100Z,71.16
2022-09-10T09:57:35.051Z,70.83
2022-09-10T09:58:35.046Z,70.12
2022-09-10T09:59:35.050Z,69.73
2022-09-10T10:00:35.032Z,70.39
2022-09-10T10:01:35.110Z,70.19
2022-09-10T10:02:35.075Z,69.49
2022-09-10T10:03:35.007Z,68.76
2022-09-10T10:04:37.047Z,68.63
2022-09-10T10:05:35.989Z,68.03
2022-09-10T10:06:35.007Z,68.03
2022-09-10T10:07:34.995Z,67.03
2022-09-10T10:08:34.973Z,68.10
2022-09-10T10:09:34.964Z,67.90
2022-09-10T10:10:34.951Z,67.13
2022-09-10T10:11:34.969Z,66.41
2022-09-10T10:12:34.937Z,65.71
2022-09-10T10:13:34.929Z,64.81
2022-09-10T10:14:34.926Z,64.78
2022-09-10T10:15:34.977Z,64.48
2022-09-10T10:16:34.929Z,64.48
2022-09-10T10:17:34.895Z,63.89
2022-09-10T10:18:34.890Z,64.28
2022-09-10T10:19:34.885Z,64.15
2022-09-10T10:20:34.877Z,62.53
2022-09-10T10:21:34.896Z,61.80
2022-09-10T10:22:34.891Z,61.91
2022-09-10T10:23:34.854Z,62.16
2022-09-10T10:24:34.844Z,62.49
2022-09-10T10:25:35.038Z,63.98
2022-09-10T10:26:34.910Z,63.49
2022-09-10T10:27:34.821Z,63.46
2022-09-10T10:28:34.818Z,63.36
2022-09-10T10:29:34.825Z,63.56
2022-09-10T10:30:34.798Z,63.39
2022-09-10T10:31:34.832Z,63.76
2022-09-10T10:32:34.781Z,62.96
2022-09-10T10:33:34.876Z,63.43
2022-09-10T10:34:34.806Z,62.34
2022-09-10T10:35:34.754Z,61.94
2022-09-10T10:36:34.777Z,62.23
2022-09-10T10:37:34.744Z,62.23
2022-09-10T10:38:34.756Z,62.26
2022-09-10T10:39:34.777Z,61.80
2022-09-10T10:40:34.713Z,62.49
2022-09-10T10:41:34.756Z,63.52
2022-09-10T10:42:34.760Z,64.31
2022-09-10T10:43:34.691Z,63.62
2022-09-10T10:44:34.691Z,63.42
2022-09-10T10:45:34.676Z,63.32
2022-09-10T10:46:34.721Z,63.75
2022-09-10T10:47:34.657Z,63.25
2022-09-10T10:48:34.652Z,64.15
2022-09-10T10:49:34.647Z,64.97
2022-09-10T10:50:34.639Z,63.61
2022-09-10T10:51:34.658Z,63.74
2022-09-10T10:52:34.638Z,63.74
2022-09-10T10:53:34.617Z,65.23
2022-09-10T10:54:34.617Z,65.73
2022-09-10T10:55:34.597Z,66.13
2022-09-10T10:56:35.046Z,66.24
2022-09-10T10:57:34.586Z,66.53
2022-09-10T10:58:34.574Z,65.73
2022-09-10T10:59:34.567Z,65.64
2022-09-10T11:00:34.572Z,66.03
2022-09-10T11:01:34.607Z,67.20
2022-09-10T11:02:34.575Z,66.50
2022-09-10T11:03:34.538Z,64.71
2022-09-10T11:04:34.566Z,65.80
2022-09-10T11:05:34.526Z,65.14
2022-09-10T11:06:34.544Z,65.44
2022-09-10T11:07:34.567Z,65.34
2022-09-10T11:08:34.523Z,64.94
2022-09-10T11:09:34.493Z,66.03
2022-09-10T11:10:34.491Z,66.47
2022-09-10T11:11:34.500Z,66.47
2022-09-10T11:12:34.472Z,66.53
2022-09-10T11:13:34.464Z,65.94
2022-09-10T11:14:34.459Z,65.73
2022-09-10T11:15:34.521Z,65.34
2022-09-10T11:16:37.396Z,65.80
2022-09-10T11:17:35.434Z,65.17
2022-09-10T11:18:34.426Z,64.37
2022-09-10T11:19:34.470Z,64.07
2022-09-10T11:20:34.416Z,64.11
2022-09-10T11:21:34.427Z,64.34
2022-09-10T11:22:34.397Z,65.34
2022-09-10T11:23:34.392Z,64.44
2022-09-10T11:24:34.381Z,65.30
2022-09-10T11:25:34.391Z,65.97
2022-09-10T11:26:34.391Z,65.67
2022-09-10T11:27:34.367Z,64.57
2022-09-10T11:28:34.357Z,64.54
2022-09-10T11:29:34.342Z,65.34
2022-09-10T11:30:34.549Z,63.74
2022-09-10T11:31:34.359Z,65.01
2022-09-10T11:32:34.323Z,64.90
2022-09-10T11:33:34.310Z,64.78
2022-09-10T11:34:34.306Z,64.37
2022-09-10T11:35:34.293Z,65.08
2022-09-10T11:36:34.309Z,64.28
2022-09-10T11:37:34.307Z,64.75
2022-09-10T11:38:34.258Z,65.21
2022-09-10T11:39:35.322Z,66.08
2022-09-10T11:40:34.259Z,64.25
2022-09-10T11:41:34.274Z,63.70
2022-09-10T11:42:34.242Z,62.07
2022-09-10T11:43:34.232Z,61.68
2022-09-10T11:44:36.474Z,61.18
2022-09-10T11:45:35.262Z,60.56
2022-09-10T11:46:34.351Z,60.36
2022-09-10T11:47:34.205Z,60.93
2022-09-10T11:48:34.200Z,60.23
2022-09-10T11:49:34.190Z,60.53
2022-09-10T11:50:35.004Z,60.63
2022-09-10T11:51:35.199Z,62.18
2022-09-10T11:52:34.171Z,60.20
2022-09-10T11:53:34.183Z,60.16
2022-09-10T11:54:34.145Z,61.35
2022-09-10T11:55:34.141Z,62.15
2022-09-10T11:56:34.215Z,61.91
2022-09-10T11:57:34.135Z,61.82
2022-09-10T11:58:34.173Z,60.33
2022-09-10T11:59:34.208Z,60.03
2022-09-10T12:00:34.104Z,60.40
2022-09-10T12:01:34.137Z,60.30
2022-09-10T12:02:34.085Z,60.47
2022-09-10T12:03:34.126Z,60.47
2022-09-10T12:04:36.888Z,61.69
2022-09-10T12:05:36.058Z,61.12
2022-09-10T12:06:34.377Z,60.88
2022-09-10T12:07:34.051Z,62.01
2022-09-10T12:08:34.038Z,64.03
2022-09-10T12:09:34.052Z,65.31
2022-09-10T12:10:34.033Z,66.44
2022-09-10T12:11:34.059Z,65.94
2022-09-10T12:12:34.009Z,65.84
2022-09-10T12:13:34.003Z,66.04
2022-09-10T12:14:33.995Z,64.87
2022-09-10T12:15:33.986Z,65.27
2022-09-10T12:16:34.005Z,65.27
2022-09-10T12:17:33.982Z,67.50
2022-09-10T12:18:33.961Z,68.00
2022-09-10T12:19:33.953Z,68.19
2022-09-10T12:20:33.948Z,68.43
2022-09-10T12:21:33.969Z,68.73
2022-09-10T12:22:33.933Z,69.36
2022-09-10T12:23:33.927Z,69.53
2022-09-10T12:24:33.916Z,69.53
2022-09-10T12:25:34.902Z,69.13
2022-09-10T12:26:34.930Z,69.92
2022-09-10T12:27:33.904Z,69.02
2022-09-10T12:28:33.899Z,69.73
2022-09-10T12:29:33.902Z,69.79
2022-09-10T12:30:33.878Z,69.29
2022-09-10T12:31:33.897Z,69.09
2022-09-10T12:32:33.875Z,68.56
2022-09-10T12:33:33.852Z,68.76
2022-09-10T12:34:33.839Z,68.23
2022-09-10T12:35:33.840Z,67.54
2022-09-10T12:36:33.877Z,67.63
2022-09-10T12:37:33.804Z,67.27
2022-09-10T12:38:34.808Z,67.36
2022-09-10T12:39:33.827Z,67.77
2022-09-10T12:40:33.791Z,68.40
2022-09-10T12:41:33.847Z,68.49
2022-09-10T12:42:33.778Z,68.93
2022-09-10T12:43:33.774Z,69.36
2022-09-10T12:44:33.765Z,70.09
2022-09-10T12:45:33.760Z,70.83
2022-09-10T12:46:33.807Z,70.26
2022-09-10T12:47:33.776Z,71.89
2022-09-10T12:48:33.738Z,72.09
2022-09-10T12:49:33.726Z,71.99
2022-09-10T12:50:33.719Z,73.13
2022-09-10T12:51:33.705Z,73.13
2022-09-10T12:52:33.731Z,73.33